createdAt,value
2018-07-22T00:02:29.172Z,95.30
2018-07-22T00:04:58.177Z,95.30
2018-07-22T00:07:27.203Z,95.40
2018-07-22T00:10:02.176Z,95.70
2018-07-22T00:12:31.594Z,95.40
2018-07-22T00:15:04.006Z,95.70
2018-07-22T00:17:33.322Z,95.30
2018-07-22T00:20:09.763Z,95.90
2018-07-22T00:22:38.659Z,95.60
2018-07-22T00:25:10.398Z,95.60
2018-07-22T00:27:39.922Z,95.80
2018-07-22T00:30:17.178Z,95.80
2018-07-22T00:32:46.242Z,96.10
2018-07-22T00:35:16.244Z,95.80
2018-07-22T00:37:46.378Z,95.90
2018-07-22T00:40:17.662Z,96.00
2018-07-22T00:42:47.169Z,96.20
2018-07-22T00:45:21.326Z,96.50
2018-07-22T00:47:51.932Z,96.20
2018-07-22T00:50:25.045Z,96.10
2018-07-22T00:52:55.647Z,96.20
2018-07-22T00:55:29.217Z,96.50
2018-07-22T00:58:02.580Z,96.60
2018-07-22T01:00:34.186Z,96.70
2018-07-22T01:03:04.250Z,96.80
2018-07-22T01:05:35.173Z,97.30
2018-07-22T01:08:04.389Z,97.10
2018-07-22T01:10:35.212Z,97.10
2018-07-22T01:13:04.485Z,97.20
2018-07-22T01:15:34.710Z,97.50
2018-07-22T01:18:04.513Z,97.40
2018-07-22T01:20:37.206Z,97.50
2018-07-22T01:23:06.752Z,97.50
2018-07-22T01:25:40.646Z,97.60
2018-07-22T01:28:09.823Z,97.90
2018-07-22T01:30:44.712Z,97.70
2018-07-22T01:33:14.417Z,98.20
2018-07-22T01:35:45.263Z,98.10
2018-07-22T01:38:15.262Z,98.00
2018-07-22T01:40:48.153Z,98.00
2018-07-22T01:43:18.635Z,98.00
2018-07-22T01:45:50.240Z,98.00
2018-07-22T01:48:19.278Z,98.20
2018-07-22T01:50:56.182Z,98.00
2018-07-22T01:53:25.657Z,98.00
2018-07-22T01:55:55.512Z,98.00
2018-07-22T01:58:25.151Z,98.00
2018-07-22T02:01:01.667Z,97.90
2018-07-22T02:03:30.769Z,98.20
2018-07-22T02:06:02.433Z,98.20
2018-07-22T02:08:31.782Z,98.20
2018-07-22T02:11:04.930Z,98.30
2018-07-22T02:13:33.680Z,98.20
2018-07-22T02:16:09.779Z,98.60
2018-07-22T02:18:39.097Z,98.60
2018-07-22T02:21:11.498Z,98.50
2018-07-22T02:23:40.650Z,98.60
2018-07-22T02:26:14.413Z,98.60
2018-07-22T02:28:43.396Z,98.70
2018-07-22T02:31:19.665Z,98.60
2018-07-22T02:33:49.199Z,98.80
2018-07-22T02:36:18.802Z,98.90
2018-07-22T02:38:48.359Z,98.90
2018-07-22T02:41:21.484Z,99.00
2018-07-22T02:43:50.646Z,98.90
2018-07-22T02:46:26.821Z,98.90
2018-07-22T02:48:56.582Z,99.00
2018-07-22T02:51:26.815Z,99.20
2018-07-22T02:53:56.137Z,99.20
2018-07-22T02:56:28.597Z,99.50
2018-07-22T02:58:57.885Z,99.40
2018-07-22T03:01:31.493Z,99.70
2018-07-22T03:04:01.081Z,99.20
2018-07-22T03:06:37.516Z,99.50
2018-07-22T03:09:08.950Z,99.60
2018-07-22T03:11:38.293Z,99.40
2018-07-22T03:14:08.139Z,99.40
2018-07-22T03:16:38.404Z,99.60
2018-07-22T03:19:07.661Z,99.60
2018-07-22T03:21:44.636Z,99.70
2018-07-22T03:24:14.571Z,99.50
2018-07-22T03:26:45.453Z,99.70
2018-07-22T03:29:15.473Z,99.60
2018-07-22T03:31:48.241Z,99.60
2018-07-22T03:34:17.168Z,99.50
2018-07-22T03:36:50.170Z,99.30
2018-07-22T03:39:20.165Z,99.40
2018-07-22T03:41:52.765Z,99.40
2018-07-22T03:44:22.696Z,99.60
2018-07-22T03:46:55.628Z,99.80
2018-07-22T03:49:25.040Z,99.80
2018-07-22T03:51:57.662Z,99.80
2018-07-22T03:54:26.644Z,99.70
2018-07-22T03:57:02.998Z,99.70
2018-07-22T03:59:32.297Z,99.90
2018-07-22T04:02:03.676Z,99.90
2018-07-22T04:04:33.171Z,99.80
2018-07-22T04:07:09.784Z,99.90
2018-07-22T04:09:38.715Z,99.80
2018-07-22T04:12:11.364Z,99.90
2018-07-22T04:14:41.078Z,99.90
2018-07-22T04:17:14.175Z,99.90
2018-07-22T04:19:43.611Z,99.90
2018-07-22T04:22:15.598Z,99.90
2018-07-22T04:24:45.698Z,99.90
2018-07-22T04:27:18.181Z,99.90
2018-07-22T04:29:47.685Z,99.90
2018-07-22T04:32:20.251Z,99.90
2018-07-22T04:34:49.655Z,99.90
2018-07-22T04:37:23.152Z,99.90
2018-07-22T04:39:52.862Z,99.90
2018-07-22T04:42:26.055Z,99.90
2018-07-22T04:44:55.724Z,99.90
2018-07-22T04:47:28.141Z,99.90
2018-07-22T04:49:57.864Z,99.90
2018-07-22T04:52:31.248Z,99.90
2018-07-22T04:55:00.544Z,99.90
2018-07-22T04:57:33.788Z,99.90
2018-07-22T05:00:02.869Z,99.90
2018-07-22T05:02:35.298Z,99.90
2018-07-22T05:05:04.661Z,99.90
2018-07-22T05:07:37.556Z,99.90
2018-07-22T05:10:06.771Z,99.90
2018-07-22T05:12:43.554Z,99.90
2018-07-22T05:15:13.388Z,99.90
2018-07-22T05:17:42.810Z,99.90
2018-07-22T05:20:11.780Z,99.90
2018-07-22T05:22:48.295Z,99.90
2018-07-22T05:25:17.697Z,99.90
2018-07-22T05:27:49.407Z,99.90
2018-07-22T05:30:18.262Z,99.90
2018-07-22T05:32:51.864Z,99.90
2018-07-22T05:35:21.144Z,99.90
2018-07-22T05:37:54.249Z,99.90
2018-07-22T05:40:24.087Z,99.90
2018-07-22T05:43:01.814Z,99.50
2018-07-22T05:45:30.857Z,99.40
2018-07-22T05:48:00.169Z,99.90
2018-07-22T05:50:30.944Z,99.50
2018-07-22T05:53:04.862Z,99.70
2018-07-22T05:55:34.060Z,99.40
2018-07-22T05:58:06.111Z,99.70
2018-07-22T06:00:36.166Z,99.90
2018-07-22T06:03:09.582Z,99.50
2018-07-22T06:05:38.885Z,99.00
2018-07-22T06:08:13.075Z,99.00
2018-07-22T06:10:42.424Z,98.90
2018-07-22T06:13:15.299Z,99.50
2018-07-22T06:15:45.161Z,99.30
2018-07-22T06:18:17.618Z,99.80
2018-07-22T06:20:46.977Z,98.70
2018-07-22T06:23:20.160Z,98.80
2018-07-22T06:25:49.222Z,98.50
2018-07-22T06:28:22.261Z,99.40
2018-07-22T06:30:52.147Z,98.60
2018-07-22T06:33:24.153Z,98.40
2018-07-22T06:35:54.214Z,98.50
2018-07-22T06:38:27.057Z,98.70
2018-07-22T06:40:57.172Z,98.80
2018-07-22T06:43:34.592Z,99.00
2018-07-22T06:46:04.422Z,98.40
2018-07-22T06:48:34.275Z,98.30
2018-07-22T06:51:04.131Z,98.40
2018-07-22T06:53:40.226Z,98.30
2018-07-22T06:56:09.065Z,98.30
2018-07-22T06:58:39.513Z,97.90
2018-07-22T07:01:08.282Z,99.10
2018-07-22T07:03:42.208Z,98.20
2018-07-22T07:06:11.250Z,99.00
2018-07-22T07:08:43.845Z,98.00
2018-07-22T07:11:14.601Z,98.00
2018-07-22T07:13:47.711Z,98.50
2018-07-22T07:16:17.000Z,98.30
2018-07-22T07:18:49.663Z,98.30
2018-07-22T07:21:19.180Z,98.30
2018-07-22T07:23:56.328Z,98.00
2018-07-22T07:26:26.098Z,97.90
2018-07-22T07:28:57.298Z,97.60
2018-07-22T07:31:27.137Z,97.80
2018-07-22T07:33:58.180Z,98.00
2018-07-22T07:36:29.788Z,97.40
2018-07-22T07:38:59.528Z,97.50
2018-07-22T07:41:28.738Z,97.90
2018-07-22T07:44:01.949Z,97.80
2018-07-22T07:46:31.322Z,98.20
2018-07-22T07:49:05.036Z,97.70
2018-07-22T07:51:34.598Z,97.50
2018-07-22T07:54:07.635Z,97.40
2018-07-22T07:56:36.879Z,97.20
2018-07-22T07:59:14.342Z,98.00
2018-07-22T08:01:43.195Z,97.60
2018-07-22T08:04:13.865Z,97.20
2018-07-22T08:06:43.578Z,97.30
2018-07-22T08:09:16.361Z,97.50
2018-07-22T08:11:45.435Z,97.00
2018-07-22T08:14:18.822Z,97.00
2018-07-22T08:16:49.079Z,96.90
2018-07-22T08:19:22.405Z,96.10
2018-07-22T08:21:52.168Z,95.70
2018-07-22T08:24:26.161Z,95.70
2018-07-22T08:26:56.530Z,95.10
2018-07-22T08:29:30.289Z,95.30
2018-07-22T08:31:59.964Z,95.10
2018-07-22T08:34:30.687Z,94.80
2018-07-22T08:37:00.762Z,94.80
2018-07-22T08:39:35.186Z,94.90
2018-07-22T08:42:04.393Z,94.10
2018-07-22T08:44:35.431Z,93.80
2018-07-22T08:47:04.625Z,93.60
2018-07-22T08:49:36.709Z,93.00
2018-07-22T08:52:08.097Z,93.40
2018-07-22T08:54:41.177Z,93.10
2018-07-22T08:57:11.013Z,92.60
2018-07-22T08:59:41.432Z,92.40
2018-07-22T09:02:10.940Z,92.10
2018-07-22T09:04:44.421Z,91.60
2018-07-22T09:07:14.940Z,92.80
2018-07-22T09:09:48.348Z,91.30
2018-07-22T09:12:18.177Z,91.70
2018-07-22T09:14:50.854Z,90.70
2018-07-22T09:17:20.589Z,90.70
2018-07-22T09:19:53.566Z,89.70
2018-07-22T09:22:22.910Z,89.00
2018-07-22T09:24:55.476Z,88.40
2018-07-22T09:27:26.114Z,88.60
2018-07-22T09:30:00.665Z,86.10
2018-07-22T09:32:29.997Z,84.00
2018-07-22T09:35:03.060Z,83.10
2018-07-22T09:37:33.080Z,83.20
2018-07-22T09:40:06.103Z,81.90
2018-07-22T09:42:37.003Z,83.10
2018-07-22T09:45:12.537Z,81.20
2018-07-22T09:47:43.510Z,79.30
2018-07-22T09:50:13.198Z,75.70
2018-07-22T09:52:42.256Z,78.20
2018-07-22T09:55:15.124Z,74.20
2018-07-22T09:57:44.562Z,74.50
2018-07-22T10:00:22.642Z,70.80
2018-07-22T10:02:51.874Z,73.50
2018-07-22T10:05:21.698Z,69.30
2018-07-22T10:07:51.188Z,68.50
2018-07-22T10:10:23.099Z,67.00
2018-07-22T10:12:53.164Z,64.90
2018-07-22T10:15:23.568Z,64.60
2018-07-22T10:17:54.051Z,69.60
2018-07-22T10:20:25.675Z,64.00
2018-07-22T10:22:56.103Z,60.80
2018-07-22T10:25:29.205Z,59.40
2018-07-22T10:28:00.162Z,58.10
2018-07-22T10:30:31.280Z,60.90
2018-07-22T10:33:00.249Z,63.00
2018-07-22T10:35:35.316Z,60.00
2018-07-22T10:38:04.791Z,60.90
2018-07-22T10:40:36.154Z,56.40
2018-07-22T10:43:07.344Z,58.30
2018-07-22T10:45:39.603Z,57.40
2018-07-22T10:48:09.339Z,54.10
2018-07-22T10:50:39.888Z,54.60
2018-07-22T10:53:10.648Z,56.70
2018-07-22T10:55:43.819Z,54.70
2018-07-22T10:58:14.062Z,54.80
2018-07-22T11:00:47.991Z,58.00
2018-07-22T11:03:17.464Z,54.50
2018-07-22T11:05:49.835Z,55.80
2018-07-22T11:08:24.398Z,53.80
2018-07-22T11:10:53.923Z,53.00
2018-07-22T11:13:23.652Z,56.80
2018-07-22T11:15:56.702Z,53.90
2018-07-22T11:18:26.316Z,51.60
2018-07-22T11:21:03.546Z,51.60
2018-07-22T11:23:34.012Z,50.30
2018-07-22T11:26:07.484Z,52.60
2018-07-22T11:28:37.088Z,51.10
2018-07-22T11:31:06.695Z,51.70
2018-07-22T11:33:36.823Z,53.60
2018-07-22T11:36:07.321Z,52.10
2018-07-22T11:38:39.189Z,51.50
2018-07-22T11:41:11.743Z,48.30
2018-07-22T11:43:41.171Z,46.00
2018-07-22T11:46:14.675Z,50.70
2018-07-22T11:48:44.687Z,49.20
2018-07-22T11:51:19.284Z,48.20
2018-07-22T11:53:50.165Z,47.50
2018-07-22T11:56:19.383Z,50.70
2018-07-22T11:58:49.558Z,48.30
2018-07-22T12:01:22.636Z,48.40
2018-07-22T12:03:53.151Z,46.70
2018-07-22T12:06:25.080Z,47.20
2018-07-22T12:08:58.361Z,47.40
2018-07-22T12:11:29.560Z,47.50
2018-07-22T12:14:02.679Z,47.50
2018-07-22T12:16:34.463Z,48.20
2018-07-22T12:19:04.308Z,48.70
2018-07-22T12:21:34.261Z,49.20
2018-07-22T12:24:03.391Z,50.10
2018-07-22T12:26:33.159Z,51.00
2018-07-22T12:29:04.559Z,51.10
2018-07-22T12:31:38.251Z,47.00
2018-07-22T12:34:08.344Z,46.50
2018-07-22T12:36:39.669Z,46.90
2018-07-22T12:39:12.860Z,48.00
2018-07-22T12:41:42.446Z,47.70
2018-07-22T12:44:11.695Z,47.50
2018-07-22T12:46:44.297Z,48.50
2018-07-22T12:49:14.682Z,47.40
2018-07-22T12:51:47.559Z,48.20
2018-07-22T12:54:17.129Z,48.70
2018-07-22T12:56:49.823Z,48.20
2018-07-22T12:59:19.155Z,49.00
2018-07-22T13:01:51.238Z,47.60
2018-07-22T13:04:21.457Z,48.30
2018-07-22T13:06:56.199Z,48.40
2018-07-22T13:09:26.303Z,49.10
2018-07-22T13:11:57.157Z,49.90
2018-07-22T13:14:27.258Z,48.10
2018-07-22T13:17:00.735Z,50.30
2018-07-22T13:19:30.336Z,51.50
2018-07-22T13:22:05.707Z,51.30
2018-07-22T13:24:37.406Z,51.30
2018-07-22T13:27:07.174Z,50.90
2018-07-22T13:29:39.272Z,48.70
2018-07-22T13:32:10.688Z,48.70
2018-07-22T13:34:40.378Z,49.00
2018-07-22T13:37:13.446Z,48.40
2018-07-22T13:39:44.197Z,47.90
2018-07-22T13:42:15.665Z,50.70
2018-07-22T13:44:46.345Z,50.10
2018-07-22T13:47:18.349Z,49.70
2018-07-22T13:49:47.692Z,50.00
2018-07-22T13:52:20.510Z,49.50
2018-07-22T13:54:49.863Z,49.80
2018-07-22T13:57:23.143Z,49.60
2018-07-22T13:59:52.416Z,49.50
2018-07-22T14:02:25.536Z,50.50
2018-07-22T14:04:56.042Z,49.60
2018-07-22T14:07:29.323Z,49.30
2018-07-22T14:09:59.607Z,50.10
2018-07-22T14:12:30.438Z,51.90
2018-07-22T14:15:00.722Z,50.00
2018-07-22T14:17:33.918Z,50.40
2018-07-22T14:20:03.488Z,51.20
2018-07-22T14:22:33.792Z,49.70
2018-07-22T14:25:04.189Z,51.20
2018-07-22T14:27:45.189Z,51.70
2018-07-22T14:30:25.170Z,51.50
2018-07-22T14:32:56.536Z,52.30
2018-07-22T14:35:29.159Z,54.10
2018-07-22T14:38:03.094Z,53.10
2018-07-22T14:40:34.323Z,52.20
2018-07-22T14:43:08.556Z,54.50
2018-07-22T14:52:30.577Z,52.30
2018-07-22T14:55:02.108Z,51.40
2018-07-22T14:57:31.641Z,53.30
2018-07-22T15:00:04.237Z,52.70
2018-07-22T15:02:34.923Z,52.20
2018-07-22T15:05:06.604Z,53.10
2018-07-22T15:07:38.388Z,51.20
2018-07-22T15:10:08.912Z,52.50
2018-07-22T15:12:37.973Z,52.60
2018-07-22T15:15:07.484Z,53.70
2018-07-22T15:17:39.667Z,55.00
2018-07-22T15:20:12.090Z,56.10
2018-07-22T15:22:43.277Z,56.90
2018-07-22T15:25:13.153Z,56.80
2018-07-22T15:32:51.271Z,57.00
2018-07-22T15:35:26.072Z,58.90
2018-07-22T15:37:58.653Z,60.00
2018-07-22T15:40:30.345Z,60.40
2018-07-22T15:43:01.590Z,60.60
2018-07-22T15:48:06.590Z,61.20
2018-07-22T15:50:35.813Z,60.60
2018-07-22T15:53:07.150Z,62.20
2018-07-22T15:55:42.853Z,61.50
2018-07-22T15:58:12.381Z,61.40
2018-07-22T16:00:45.878Z,62.10
2018-07-22T16:03:15.819Z,61.40
2018-07-22T16:05:46.286Z,61.30
2018-07-22T16:08:16.303Z,61.70
2018-07-22T16:10:45.457Z,64.40
2018-07-22T16:13:15.169Z,61.70
2018-07-22T16:15:44.929Z,62.00
2018-07-22T16:18:17.741Z,65.10
2018-07-22T16:20:47.643Z,64.10
2018-07-22T16:23:17.068Z,63.70
2018-07-22T16:25:47.074Z,63.70
2018-07-22T16:28:17.704Z,63.90
2018-07-22T16:30:46.779Z,65.80
2018-07-22T16:33:18.676Z,66.40
2018-07-22T16:35:49.219Z,66.80
2018-07-22T16:38:18.784Z,68.40
2018-07-22T16:40:48.200Z,67.50
2018-07-22T16:43:17.160Z,69.30
2018-07-22T16:45:50.639Z,69.00
2018-07-22T16:48:20.054Z,69.90
2018-07-22T16:50:58.925Z,70.90
2018-07-22T16:53:29.558Z,71.80
2018-07-22T16:55:59.871Z,73.00
2018-07-22T16:58:31.672Z,73.10
2018-07-22T17:01:03.900Z,73.60
2018-07-22T17:03:34.744Z,72.00
2018-07-22T17:06:04.755Z,73.00
2018-07-22T17:08:34.572Z,73.10
2018-07-22T17:11:06.772Z,75.00
2018-07-22T17:13:36.640Z,73.20
2018-07-22T17:16:08.631Z,73.50
2018-07-22T17:18:40.327Z,73.90
2018-07-22T17:21:11.395Z,76.80
2018-07-22T17:23:43.599Z,77.10
2018-07-22T17:28:48.977Z,75.50
2018-07-22T17:31:19.289Z,76.30
2018-07-22T17:33:51.900Z,77.10
2018-07-22T17:36:21.395Z,76.40
2018-07-22T17:38:54.586Z,78.90
2018-07-22T17:41:26.422Z,80.00
2018-07-22T17:43:59.071Z,76.10
2018-07-22T17:46:29.364Z,76.50
2018-07-22T17:48:59.148Z,79.40
2018-07-22T17:51:31.589Z,81.60
2018-07-22T17:54:03.685Z,78.30
2018-07-22T17:56:34.361Z,77.80
2018-07-22T17:59:06.908Z,78.60
2018-07-22T18:01:40.796Z,80.20
2018-07-22T18:04:13.635Z,79.50
2018-07-22T18:06:43.732Z,80.60
2018-07-22T18:09:13.778Z,81.10
2018-07-22T18:11:44.004Z,79.20
2018-07-22T18:14:13.303Z,80.40
2018-07-22T18:16:42.833Z,79.10
2018-07-22T18:19:13.125Z,80.10
2018-07-22T18:21:48.165Z,80.60
2018-07-22T18:24:27.176Z,79.80
2018-07-22T18:26:59.715Z,80.90
2018-07-22T18:29:31.098Z,80.00
2018-07-22T18:32:00.678Z,82.10
2018-07-22T18:34:34.210Z,79.80
2018-07-22T18:37:07.771Z,85.60
2018-07-22T18:39:39.253Z,84.20
2018-07-22T18:42:10.424Z,85.80
2018-07-22T18:44:40.122Z,85.10
2018-07-22T18:47:10.713Z,85.20
2018-07-22T18:49:41.481Z,85.10
2018-07-22T18:52:11.161Z,86.90
2018-07-22T18:54:41.153Z,88.20
2018-07-22T18:57:12.884Z,88.90
2018-07-22T18:59:44.154Z,88.00
2018-07-22T19:02:15.260Z,89.00
2018-07-22T19:04:47.685Z,89.80
2018-07-22T19:07:19.676Z,90.20
2018-07-22T19:09:49.398Z,89.80
2018-07-22T19:12:20.824Z,88.90
2018-07-22T19:14:51.716Z,89.90
2018-07-22T19:17:22.648Z,90.60
2018-07-22T19:19:53.829Z,91.00
2018-07-22T19:22:27.226Z,90.80
2018-07-22T19:24:58.342Z,91.30
2018-07-22T19:27:30.519Z,91.80
2018-07-22T19:30:00.294Z,91.10
2018-07-22T19:32:30.163Z,91.20
2018-07-22T19:35:05.564Z,91.40
2018-07-22T19:37:35.702Z,92.70
2018-07-22T19:40:05.480Z,93.10
2018-07-22T19:42:37.785Z,92.90
2018-07-22T19:45:11.232Z,91.90
2018-07-22T19:47:43.468Z,92.70
2018-07-22T19:50:18.298Z,92.60
2018-07-22T19:52:47.721Z,92.80
2018-07-22T19:55:18.422Z,92.10
2018-07-22T19:57:52.972Z,92.90
2018-07-22T20:03:06.131Z,92.70
2018-07-22T20:05:41.707Z,92.70
2018-07-22T20:08:14.736Z,93.80
2018-07-22T20:10:48.249Z,93.40
2018-07-22T20:13:22.357Z,93.50
2018-07-22T20:16:03.672Z,93.50
2018-07-22T20:18:34.166Z,93.90
2018-07-22T20:21:31.527Z,94.60
2018-07-22T20:24:14.518Z,94.00
2018-07-22T20:26:54.547Z,94.20
2018-07-22T20:29:27.170Z,93.80
2018-07-22T20:32:02.939Z,93.90
2018-07-22T20:34:53.384Z,93.80
2018-07-22T20:37:25.074Z,93.60
2018-07-22T20:39:59.802Z,93.60
2018-07-22T20:42:29.664Z,94.00
2018-07-22T20:45:02.371Z,94.20
2018-07-22T20:47:34.217Z,93.80
2018-07-22T20:50:06.178Z,94.40
2018-07-22T20:52:36.523Z,94.20
2018-07-22T20:55:08.401Z,93.90
2018-07-22T20:57:38.776Z,94.40
2018-07-22T21:00:09.250Z,94.10
2018-07-22T21:02:40.507Z,94.60
2018-07-22T21:05:15.208Z,94.10
2018-07-22T21:07:47.554Z,93.90
2018-07-22T21:10:17.285Z,94.50
2018-07-22T21:13:01.150Z,95.00
2018-07-22T21:15:43.588Z,94.10
2018-07-22T21:18:39.464Z,94.20
2018-07-22T21:21:09.363Z,94.30
2018-07-22T21:23:39.272Z,94.10
2018-07-22T21:26:09.494Z,93.90
2018-07-22T21:28:39.536Z,94.20
2018-07-22T21:33:59.255Z,93.90
2018-07-22T21:36:32.462Z,94.50
2018-07-22T21:39:02.250Z,94.60
2018-07-22T21:41:32.771Z,94.80
2018-07-22T21:44:03.208Z,94.70
2018-07-22T21:46:33.607Z,94.50
2018-07-22T21:49:04.165Z,94.70
2018-07-22T21:51:35.904Z,94.70
2018-07-22T21:54:07.661Z,94.90
2018-07-22T21:56:37.154Z,95.20
2018-07-22T21:59:07.661Z,95.10
2018-07-22T22:01:42.970Z,95.70
2018-07-22T22:04:12.568Z,95.80
2018-07-22T22:06:42.900Z,95.30
2018-07-22T22:09:15.065Z,95.30
2018-07-22T22:11:46.218Z,95.60
2018-07-22T22:14:16.248Z,95.70
2018-07-22T22:16:49.383Z,95.80
2018-07-22T22:19:19.079Z,95.80
2018-07-22T22:21:51.534Z,95.80
2018-07-22T22:24:21.154Z,95.80
2018-07-22T22:29:27.723Z,96.00
2018-07-22T22:31:56.931Z,96.50
2018-07-22T22:34:27.288Z,96.70
2018-07-22T22:37:00.418Z,96.40
2018-07-22T22:39:30.172Z,96.30
2018-07-22T22:42:01.429Z,97.10
2018-07-22T22:44:31.246Z,96.90
2018-07-22T22:47:05.109Z,97.20
2018-07-22T22:49:35.742Z,97.10
2018-07-22T22:52:09.460Z,96.90
2018-07-22T22:54:38.770Z,97.30
2018-07-22T22:57:10.839Z,97.40
2018-07-22T22:59:42.103Z,97.40
2018-07-22T23:02:14.648Z,97.60
2018-07-22T23:04:43.710Z,97.70
2018-07-22T23:07:16.787Z,98.00
2018-07-22T23:09:49.851Z,98.10
2018-07-22T23:12:19.003Z,98.50
2018-07-22T23:14:48.105Z,98.30
2018-07-22T23:17:20.276Z,98.20
2018-07-22T23:19:49.561Z,98.30
2018-07-22T23:22:25.806Z,98.30
2018-07-22T23:24:55.515Z,98.60
2018-07-22T23:27:25.307Z,98.60
2018-07-22T23:29:54.424Z,98.80
2018-07-22T23:32:29.467Z,98.70
2018-07-22T23:35:00.725Z,99.00
2018-07-22T23:37:30.828Z,99.00
2018-07-22T23:40:02.497Z,99.00
2018-07-22T23:42:33.834Z,99.00
2018-07-22T23:45:03.527Z,99.00
2018-07-22T23:47:35.331Z,99.30
2018-07-22T23:50:05.419Z,99.30
2018-07-22T23:52:39.910Z,99.20
2018-07-22T23:55:09.398Z,99.50
2018-07-22T23:57:40.280Z,99.50
